createdAt,value
2023-02-18T05:15:29.055Z,10.53
2023-02-18T05:18:46.739Z,10.52
2023-02-18T05:19:46.719Z,10.51
2023-02-18T05:20:46.696Z,10.52
2023-02-18T05:21:46.697Z,10.52
2023-02-18T05:22:46.666Z,10.51
2023-02-18T05:23:46.657Z,10.47
2023-02-18T05:24:46.638Z,10.51
2023-02-18T05:25:46.636Z,10.51
2023-02-18T05:26:46.626Z,10.47
2023-02-18T05:27:46.621Z,10.51
2023-02-18T05:28:46.588Z,10.51
2023-02-18T05:29:46.578Z,10.51
2023-02-18T05:30:46.589Z,10.51
2023-02-18T05:31:46.760Z,10.47
2023-02-18T05:32:46.548Z,10.47
2023-02-18T05:33:46.533Z,10.47
2023-02-18T05:34:46.518Z,10.47
2023-02-18T05:35:46.505Z,10.47
2023-02-18T05:36:46.512Z,10.46
2023-02-18T05:37:46.490Z,10.47
2023-02-18T05:38:46.465Z,10.46
2023-02-18T05:39:46.459Z,10.47
2023-02-18T05:40:46.434Z,10.47
2023-02-18T05:41:46.449Z,10.47
2023-02-18T05:42:46.413Z,10.47
2023-02-18T05:43:46.404Z,10.47
2023-02-18T05:44:46.383Z,10.47
2023-02-18T05:45:46.381Z,10.47
2023-02-18T05:46:46.426Z,10.51
2023-02-18T05:47:46.366Z,10.51
2023-02-18T05:48:46.332Z,10.51
2023-02-18T05:49:46.360Z,10.47
2023-02-18T05:50:46.345Z,10.47
2023-02-18T05:51:46.349Z,10.46
2023-02-18T05:52:46.301Z,10.47
2023-02-18T05:53:46.291Z,10.47
2023-02-18T05:54:46.255Z,10.46
2023-02-18T05:55:46.254Z,10.47
2023-02-18T05:56:46.241Z,10.47
2023-02-18T05:57:46.226Z,10.47
2023-02-18T05:58:46.200Z,10.51
2023-02-18T05:59:46.206Z,10.51
2023-02-18T06:00:46.172Z,10.47
2023-02-18T06:01:46.180Z,10.51
2023-02-18T06:02:46.166Z,10.46
2023-02-18T06:03:46.140Z,10.47
2023-02-18T06:04:46.118Z,10.46
2023-02-18T06:05:46.144Z,10.46
2023-02-18T06:06:46.122Z,10.46
2023-02-18T06:07:46.090Z,10.44
2023-02-18T06:08:46.084Z,10.46
2023-02-18T06:09:46.061Z,10.46
2023-02-18T06:10:46.042Z,10.46
2023-02-18T06:11:46.052Z,10.44
2023-02-18T06:12:46.021Z,10.43
2023-02-18T06:13:46.009Z,10.46
2023-02-18T06:14:46.021Z,10.43
2023-02-18T06:15:46.013Z,10.43
2023-02-18T06:16:45.979Z,10.43
2023-02-18T06:17:45.960Z,10.44
2023-02-18T06:18:45.960Z,10.43
2023-02-18T06:19:45.935Z,10.43
2023-02-18T06:20:45.929Z,10.42
2023-02-18T06:21:45.941Z,10.42
2023-02-18T06:22:45.900Z,10.42
2023-02-18T06:23:45.880Z,10.42
2023-02-18T06:24:45.868Z,10.40
2023-02-18T06:25:45.889Z,10.42
2023-02-18T06:26:45.850Z,10.42
2023-02-18T06:27:45.837Z,10.42
2023-02-18T06:28:45.816Z,10.39
2023-02-18T06:29:45.807Z,10.40
2023-02-18T06:30:45.789Z,10.40
2023-02-18T06:31:45.904Z,10.40
2023-02-18T06:32:45.765Z,10.40
2023-02-18T06:33:45.759Z,10.39
2023-02-18T06:34:45.739Z,10.40
2023-02-18T06:35:45.723Z,10.40
2023-02-18T06:36:45.738Z,10.39
2023-02-18T06:37:45.701Z,10.37
2023-02-18T06:38:45.683Z,10.40
2023-02-18T06:39:45.675Z,10.39
2023-02-18T06:40:45.670Z,10.39
2023-02-18T06:41:45.722Z,10.40
2023-02-18T06:42:45.631Z,10.37
2023-02-18T06:43:45.629Z,10.40
2023-02-18T06:44:45.607Z,10.39
2023-02-18T06:45:45.591Z,10.40
2023-02-18T06:46:45.600Z,10.39
2023-02-18T06:47:45.571Z,10.39
2023-02-18T06:48:45.550Z,10.39
2023-02-18T06:49:45.543Z,10.40
2023-02-18T06:50:45.525Z,10.40
2023-02-18T06:51:45.533Z,10.40
2023-02-18T06:52:45.510Z,10.42
2023-02-18T06:53:45.494Z,10.40
2023-02-18T06:54:45.471Z,10.40
2023-02-18T06:55:45.465Z,10.42
2023-02-18T06:56:45.458Z,10.42
2023-02-18T06:57:45.449Z,10.42
2023-02-18T06:58:45.417Z,10.42
2023-02-18T06:59:45.418Z,10.40
2023-02-18T07:00:45.490Z,10.42
2023-02-18T07:01:45.398Z,10.42
2023-02-18T07:02:45.366Z,10.42
2023-02-18T07:03:45.392Z,10.42
2023-02-18T07:04:45.338Z,10.42
2023-02-18T07:05:45.349Z,10.42
2023-02-18T07:06:45.329Z,10.42
2023-02-18T07:07:45.309Z,10.43
2023-02-18T07:08:45.286Z,10.43
2023-02-18T07:09:45.289Z,10.44
2023-02-18T07:10:45.258Z,10.44
2023-02-18T07:11:45.278Z,10.46
2023-02-18T07:12:45.246Z,10.44
2023-02-18T07:13:45.228Z,10.46
2023-02-18T07:14:45.235Z,10.47
2023-02-18T07:15:45.205Z,10.46
2023-02-18T07:16:45.227Z,10.47
2023-02-18T07:17:45.189Z,10.46
2023-02-18T07:18:45.163Z,10.46
2023-02-18T07:19:45.153Z,10.46
2023-02-18T07:20:45.132Z,10.47
2023-02-18T07:21:45.130Z,10.51
2023-02-18T07:22:45.115Z,10.47
2023-02-18T07:23:45.094Z,10.46
2023-02-18T07:24:45.074Z,10.47
2023-02-18T07:25:45.078Z,10.51
2023-02-18T07:26:45.053Z,10.47
2023-02-18T07:27:45.053Z,10.47
2023-02-18T07:28:45.024Z,10.51
2023-02-18T07:29:45.016Z,10.52
2023-02-18T07:30:45.007Z,10.52
2023-02-18T07:31:45.153Z,10.51
2023-02-18T07:32:44.984Z,10.52
2023-02-18T07:33:44.962Z,10.53
2023-02-18T07:34:44.945Z,10.51
2023-02-18T07:35:44.933Z,10.52
2023-02-18T07:36:44.912Z,10.52
2023-02-18T07:37:44.912Z,10.53
2023-02-18T07:38:44.894Z,10.53
2023-02-18T07:39:44.881Z,10.53
2023-02-18T07:40:44.862Z,10.53
2023-02-18T07:41:44.852Z,10.56
2023-02-18T07:42:44.857Z,10.58
2023-02-18T07:43:44.830Z,10.56
2023-02-18T07:44:44.812Z,10.56
2023-02-18T07:45:44.846Z,10.56
2023-02-18T07:46:46.668Z,10.56
2023-02-18T07:47:44.790Z,10.55
2023-02-18T07:48:44.759Z,10.53
2023-02-18T07:49:44.751Z,10.53
2023-02-18T07:50:44.732Z,10.55
2023-02-18T07:51:44.721Z,10.56
2023-02-18T07:52:44.710Z,10.55
2023-02-18T07:53:44.691Z,10.58
2023-02-18T07:54:44.684Z,10.58
2023-02-18T07:55:44.671Z,10.56
2023-02-18T07:56:44.654Z,10.56
2023-02-18T07:57:44.653Z,10.56
2023-02-18T07:58:44.628Z,10.55
2023-02-18T07:59:44.610Z,10.55
2023-02-18T08:00:44.605Z,10.56
2023-02-18T08:01:45.170Z,10.56
2023-02-18T08:02:44.580Z,10.58
2023-02-18T08:03:44.559Z,10.59
2023-02-18T08:04:44.550Z,10.58
2023-02-18T08:05:44.538Z,10.58
2023-02-18T08:06:44.521Z,10.56
2023-02-18T08:07:44.535Z,10.58
2023-02-18T08:08:44.505Z,10.58
2023-02-18T08:09:44.479Z,10.59
2023-02-18T08:10:44.468Z,10.58
2023-02-18T08:11:44.457Z,10.59
2023-02-18T08:12:44.455Z,10.59
2023-02-18T08:13:46.900Z,10.59
2023-02-18T08:14:44.426Z,10.58
2023-02-18T08:15:44.408Z,10.59
2023-02-18T08:16:44.444Z,10.63
2023-02-18T08:17:44.394Z,10.63
2023-02-18T08:18:44.363Z,10.60
2023-02-18T08:19:44.377Z,10.62
2023-02-18T08:20:44.343Z,10.62
2023-02-18T08:21:44.326Z,10.62
2023-02-18T08:22:44.325Z,10.62
2023-02-18T08:23:44.295Z,10.63
2023-02-18T08:24:44.283Z,10.60
2023-02-18T08:25:44.272Z,10.62
2023-02-18T08:26:59.481Z,10.63
2023-02-18T08:27:45.254Z,10.63
2023-02-18T08:28:44.241Z,10.62
2023-02-18T08:29:44.217Z,10.62
2023-02-18T08:30:44.437Z,10.63
2023-02-18T08:31:45.009Z,10.62
2023-02-18T08:32:44.183Z,10.60
2023-02-18T08:33:44.164Z,10.62
2023-02-18T08:34:44.146Z,10.62
2023-02-18T08:35:44.140Z,10.62
2023-02-18T08:36:44.127Z,10.62
2023-02-18T08:37:51.942Z,10.59
2023-02-18T08:38:45.115Z,10.60
2023-02-18T08:39:44.084Z,10.59
2023-02-18T08:40:44.082Z,10.60
2023-02-18T08:41:44.063Z,10.59
2023-02-18T08:42:44.053Z,10.58
2023-02-18T08:43:44.023Z,10.58
2023-02-18T08:44:44.031Z,10.58
2023-02-18T08:45:44.093Z,10.58
2023-02-18T08:46:44.013Z,10.55
2023-02-18T08:48:16.645Z,10.58
2023-02-18T08:48:44.966Z,10.55
2023-02-18T08:49:43.959Z,10.56
2023-02-18T08:50:43.934Z,10.56
2023-02-18T08:51:43.921Z,10.53
2023-02-18T08:52:43.912Z,10.52
2023-02-18T08:53:43.893Z,10.53
2023-02-18T08:54:43.879Z,10.53
2023-02-18T08:55:43.885Z,10.47
2023-02-18T08:56:43.847Z,10.51
2023-02-18T08:57:43.854Z,10.47
2023-02-18T08:58:43.851Z,10.47
2023-02-18T08:59:43.813Z,10.46
2023-02-18T09:00:43.808Z,10.47
2023-02-18T09:01:43.863Z,10.44
2023-02-18T09:02:43.779Z,10.44
2023-02-18T09:03:43.760Z,10.46
2023-02-18T09:04:43.742Z,10.42
2023-02-18T09:05:43.734Z,10.39
2023-02-18T09:06:43.714Z,10.37
2023-02-18T09:07:43.725Z,10.36
2023-02-18T09:08:43.691Z,10.33
2023-02-18T09:09:43.679Z,10.30
2023-02-18T09:10:46.192Z,10.32
2023-02-18T09:11:43.657Z,10.32
2023-02-18T09:12:43.638Z,10.32
2023-02-18T09:13:43.651Z,10.30
2023-02-18T09:14:43.614Z,10.28
2023-02-18T09:15:43.653Z,10.30
2023-02-18T09:16:43.588Z,10.30
2023-02-18T09:17:43.584Z,10.26
2023-02-18T09:18:43.556Z,10.28
2023-02-18T09:19:43.537Z,10.26
2023-02-18T09:20:43.525Z,10.24
2023-02-18T09:21:43.526Z,10.22
2023-02-18T09:22:43.515Z,10.22
2023-02-18T09:23:43.487Z,10.19
2023-02-18T09:24:43.478Z,10.21
2023-02-18T09:25:43.454Z,10.17
2023-02-18T09:26:43.444Z,10.17
2023-02-18T09:27:43.432Z,10.15
2023-02-18T09:28:43.435Z,10.18
2023-02-18T09:29:43.454Z,10.15
2023-02-18T09:30:43.429Z,10.14
2023-02-18T09:31:43.455Z,10.15
2023-02-18T09:32:43.363Z,10.14
2023-02-18T09:33:45.667Z,10.09
2023-02-18T09:34:43.349Z,10.07
2023-02-18T09:35:43.348Z,10.09
2023-02-18T09:36:43.311Z,10.07
2023-02-18T09:37:43.301Z,10.07
2023-02-18T09:38:43.310Z,10.06
2023-02-18T09:39:43.276Z,10.03
2023-02-18T09:40:43.280Z,10.01
2023-02-18T09:41:43.261Z,10.00
2023-02-18T09:42:43.232Z,10.01
2023-02-18T09:43:43.239Z,9.97
2023-02-18T09:44:43.211Z,9.97
2023-02-18T09:45:43.198Z,9.97
2023-02-18T09:46:43.179Z,9.94
2023-02-18T09:47:43.180Z,9.93
2023-02-18T09:48:43.170Z,9.93
2023-02-18T09:49:43.151Z,9.96
2023-02-18T09:50:43.128Z,9.94
2023-02-18T09:51:43.123Z,9.94
2023-02-18T09:52:43.097Z,9.96
2023-02-18T09:53:43.120Z,9.96
2023-02-18T09:54:43.080Z,9.94
2023-02-18T09:55:43.091Z,9.91
2023-02-18T09:56:43.057Z,9.93
2023-02-18T09:57:43.046Z,9.91
2023-02-18T09:58:43.041Z,9.91
2023-02-18T09:59:43.019Z,9.85
2023-02-18T10:00:42.997Z,9.88
2023-02-18T10:01:43.056Z,9.89
2023-02-18T10:02:42.979Z,9.88
2023-02-18T10:03:42.972Z,9.91
2023-02-18T10:04:42.952Z,9.88
2023-02-18T10:05:42.941Z,9.88
2023-02-18T10:06:42.921Z,9.85
2023-02-18T10:07:42.922Z,9.85
2023-02-18T10:08:42.928Z,9.86
2023-02-18T10:09:42.891Z,9.86
2023-02-18T10:10:42.901Z,9.85
2023-02-18T10:11:42.902Z,9.83
2023-02-18T10:12:42.907Z,9.82
2023-02-18T10:13:42.877Z,9.82
2023-02-18T10:14:42.837Z,9.83
2023-02-18T10:15:42.901Z,9.83
2023-02-18T10:16:42.796Z,9.85
2023-02-18T10:17:42.796Z,9.83
2023-02-18T10:18:42.798Z,9.81
2023-02-18T10:19:42.758Z,9.81
2023-02-18T10:20:42.752Z,9.81
2023-02-18T10:21:42.764Z,9.82
2023-02-18T10:22:42.728Z,9.81
2023-02-18T10:23:42.761Z,9.79
2023-02-18T10:24:42.700Z,9.79
2023-02-18T10:25:42.687Z,9.81
2023-02-18T10:26:42.683Z,9.82
2023-02-18T10:27:42.657Z,9.81
2023-02-18T10:28:42.646Z,9.81
2023-02-18T10:29:42.626Z,9.83
2023-02-18T10:30:42.614Z,9.85
2023-02-18T10:31:42.721Z,9.83
2023-02-18T10:32:42.595Z,9.85
2023-02-18T10:33:42.598Z,9.88
2023-02-18T10:34:42.598Z,9.91
2023-02-18T10:35:42.557Z,9.89
2023-02-18T10:36:42.537Z,9.89
2023-02-18T10:37:42.533Z,9.86
2023-02-18T10:38:42.555Z,9.88
2023-02-18T10:39:42.516Z,9.85
2023-02-18T10:40:42.485Z,9.89
2023-02-18T10:41:42.476Z,9.93
2023-02-18T10:42:42.460Z,9.91
2023-02-18T10:43:42.471Z,9.91
2023-02-18T10:44:42.437Z,9.93
2023-02-18T10:45:42.434Z,9.94
2023-02-18T10:46:42.459Z,9.91
2023-02-18T10:47:42.405Z,9.93
2023-02-18T10:48:42.444Z,9.85
2023-02-18T10:49:42.381Z,9.83
2023-02-18T10:50:42.370Z,9.83
2023-02-18T10:51:42.344Z,9.88
2023-02-18T10:52:42.349Z,9.88
2023-02-18T10:53:42.354Z,9.83
2023-02-18T10:54:42.302Z,9.85
2023-02-18T10:55:42.346Z,9.85
2023-02-18T10:56:42.313Z,9.86
2023-02-18T10:57:42.272Z,9.86
2023-02-18T10:58:42.263Z,9.86
2023-02-18T10:59:42.241Z,9.85
2023-02-18T11:00:42.228Z,9.83
2023-02-18T11:01:42.293Z,9.81
2023-02-18T11:02:42.200Z,9.81
2023-02-18T11:03:42.208Z,9.81
2023-02-18T11:04:42.225Z,9.81
2023-02-18T11:05:42.159Z,9.81
2023-02-18T11:06:42.149Z,9.79
2023-02-18T11:07:42.138Z,9.81
2023-02-18T11:08:42.130Z,9.79
2023-02-18T11:09:42.227Z,9.76
2023-02-18T11:10:42.107Z,9.76
2023-02-18T11:11:42.776Z,9.73
2023-02-18T11:12:42.069Z,9.70
2023-02-18T11:13:42.080Z,9.73
2023-02-18T11:14:42.038Z,9.78
2023-02-18T11:15:42.114Z,9.79
2023-02-18T11:16:42.017Z,9.82
2023-02-18T11:17:42.008Z,9.83
2023-02-18T11:18:42.006Z,9.82
2023-02-18T11:19:41.978Z,9.83
2023-02-18T11:20:41.975Z,9.83
2023-02-18T11:21:41.945Z,9.86
2023-02-18T11:22:41.946Z,9.88
2023-02-18T11:23:41.937Z,9.88
2023-02-18T11:24:41.916Z,9.85
2023-02-18T11:25:41.900Z,9.85
2023-02-18T11:26:41.892Z,9.81
2023-02-18T11:27:41.876Z,9.78
2023-02-18T11:28:41.876Z,9.78
2023-02-18T11:29:41.847Z,9.76
2023-02-18T11:30:41.883Z,9.75
2023-02-18T11:31:41.898Z,9.76
2023-02-18T11:32:41.817Z,9.75
2023-02-18T11:33:41.812Z,9.78
2023-02-18T11:34:41.796Z,9.75
2023-02-18T11:35:41.767Z,9.76
2023-02-18T11:36:41.764Z,9.78
2023-02-18T11:37:41.745Z,9.79
2023-02-18T11:38:41.744Z,9.78
2023-02-18T11:39:41.714Z,9.81
2023-02-18T11:40:41.705Z,9.85
2023-02-18T11:41:41.698Z,9.78
2023-02-18T11:42:41.685Z,9.79
2023-02-18T11:43:41.667Z,9.81
2023-02-18T11:44:41.673Z,9.78
2023-02-18T11:45:41.643Z,9.79
2023-02-18T11:46:41.653Z,9.83
2023-02-18T11:47:41.611Z,9.82
2023-02-18T11:48:41.610Z,9.82
2023-02-18T11:49:41.595Z,9.79
2023-02-18T11:50:41.583Z,9.78
2023-02-18T11:51:41.555Z,9.78
2023-02-18T11:52:41.556Z,9.78
2023-02-18T11:53:41.540Z,9.75
2023-02-18T11:54:41.622Z,9.76
2023-02-18T11:55:41.528Z,9.78
2023-02-18T11:56:41.505Z,9.79
2023-02-18T11:57:41.486Z,9.82
2023-02-18T11:58:41.507Z,9.86
2023-02-18T11:59:41.636Z,9.89
2023-02-18T12:00:41.458Z,9.86
2023-02-18T12:01:41.462Z,9.82
2023-02-18T12:02:41.435Z,9.82
2023-02-18T12:03:41.414Z,9.79
2023-02-18T12:04:41.418Z,9.81
2023-02-18T12:05:41.387Z,9.79
2023-02-18T12:06:41.377Z,9.81
2023-02-18T12:07:41.366Z,9.81
2023-02-18T12:08:41.360Z,9.82
2023-02-18T12:09:41.348Z,9.79
2023-02-18T12:10:41.326Z,9.82
2023-02-18T12:11:41.317Z,9.81
2023-02-18T12:12:41.332Z,9.79
2023-02-18T12:13:41.312Z,9.81
2023-02-18T12:14:41.287Z,9.79
2023-02-18T12:15:41.289Z,9.79
2023-02-18T12:16:41.280Z,9.82
2023-02-18T12:17:41.249Z,9.83
2023-02-18T12:18:42.837Z,9.83
2023-02-18T12:19:41.228Z,9.85
2023-02-18T12:20:41.197Z,9.86
2023-02-18T12:21:41.177Z,9.88
2023-02-18T12:22:41.186Z,9.85
2023-02-18T12:23:41.169Z,9.83
2023-02-18T12:24:41.184Z,9.85
2023-02-18T12:25:41.141Z,9.83
2023-02-18T12:26:41.152Z,9.82
2023-02-18T12:27:41.108Z,9.82
2023-02-18T12:28:41.116Z,9.81
2023-02-18T12:29:41.096Z,9.82
2023-02-18T12:30:41.081Z,9.82
2023-02-18T12:31:41.187Z,9.85
2023-02-18T12:32:41.074Z,9.89
2023-02-18T12:33:41.042Z,9.89
2023-02-18T12:34:41.035Z,9.86
2023-02-18T12:35:41.033Z,9.89
2023-02-18T12:36:40.998Z,9.89
2023-02-18T12:37:40.976Z,9.93
2023-02-18T12:38:40.973Z,9.89
2023-02-18T12:39:40.971Z,9.88
2023-02-18T12:40:40.956Z,9.93
2023-02-18T12:41:40.926Z,9.91
2023-02-18T12:42:40.914Z,9.93
2023-02-18T12:43:40.893Z,9.93
2023-02-18T12:44:41.652Z,9.93
2023-02-18T12:45:40.916Z,9.94
2023-02-18T12:46:40.886Z,9.93
2023-02-18T12:47:40.871Z,9.93
2023-02-18T12:48:40.851Z,9.93
2023-02-18T12:49:40.846Z,9.96
2023-02-18T12:50:40.806Z,9.96
2023-02-18T12:51:40.824Z,9.96
2023-02-18T12:52:40.785Z,9.97
2023-02-18T12:53:40.779Z,9.97
2023-02-18T12:54:40.760Z,9.96
2023-02-18T12:55:40.763Z,9.97
2023-02-18T12:56:40.730Z,9.97
2023-02-18T12:57:40.723Z,10.00
2023-02-18T12:58:40.719Z,10.00
2023-02-18T12:59:40.691Z,10.03
2023-02-18T13:00:40.692Z,10.04
2023-02-18T13:01:40.674Z,10.06
2023-02-18T13:02:40.650Z,10.09
2023-02-18T13:03:40.643Z,10.12
2023-02-18T13:04:40.628Z,10.14
2023-02-18T13:05:40.628Z,10.17
2023-02-18T13:06:40.601Z,10.17
2023-02-18T13:07:40.594Z,10.17
2023-02-18T13:08:40.570Z,10.17
2023-02-18T13:09:40.570Z,10.17
2023-02-18T13:10:40.556Z,10.18
2023-02-18T13:11:40.538Z,10.18
2023-02-18T13:12:40.521Z,10.21
2023-02-18T13:13:40.509Z,10.19
2023-02-18T13:14:40.497Z,10.22
2023-02-18T13:15:40.499Z,10.19
2023-02-18T13:16:40.504Z,10.22
2023-02-18T13:17:40.486Z,10.22
2023-02-18T13:18:40.437Z,10.22
2023-02-18T13:19:40.428Z,10.22
2023-02-18T13:20:40.429Z,10.24
2023-02-18T13:21:40.397Z,10.22
2023-02-18T13:22:40.391Z,10.25
2023-02-18T13:23:40.397Z,10.26
2023-02-18T13:24:40.357Z,10.26
2023-02-18T13:25:40.376Z,10.30
2023-02-18T13:26:40.347Z,10.30
2023-02-18T13:27:40.347Z,10.30
2023-02-18T13:28:40.307Z,10.30
2023-02-18T13:29:40.298Z,10.28
2023-02-18T13:30:40.469Z,10.26
2023-02-18T13:31:40.392Z,10.25
2023-02-18T13:32:40.255Z,10.25
2023-02-18T13:33:40.251Z,10.24
2023-02-18T13:34:40.243Z,10.26
2023-02-18T13:35:40.226Z,10.25
2023-02-18T13:36:40.197Z,10.22
2023-02-18T13:37:40.184Z,10.24
2023-02-18T13:38:40.175Z,10.22
2023-02-18T13:39:40.164Z,10.22
2023-02-18T13:40:40.163Z,10.24
2023-02-18T13:41:40.137Z,10.21
2023-02-18T13:42:40.113Z,10.22
2023-02-18T13:43:40.115Z,10.24
2023-02-18T13:44:40.090Z,10.22
2023-02-18T13:45:40.091Z,10.18
2023-02-18T13:46:40.062Z,10.18
2023-02-18T13:47:40.052Z,10.18
2023-02-18T13:48:40.041Z,10.21
2023-02-18T13:49:40.122Z,10.22
2023-02-18T13:50:40.021Z,10.22
2023-02-18T13:51:40.015Z,10.24
2023-02-18T13:52:39.984Z,10.22
2023-02-18T13:53:39.971Z,10.21
2023-02-18T13:54:39.977Z,10.21
2023-02-18T13:55:39.960Z,10.21
2023-02-18T13:56:39.940Z,10.19
2023-02-18T13:57:39.919Z,10.21
2023-02-18T13:58:39.902Z,10.21
2023-02-18T13:59:39.898Z,10.21
2023-02-18T14:00:39.889Z,10.21
2023-02-18T14:01:39.866Z,10.24
2023-02-18T14:02:39.912Z,10.22
2023-02-18T14:03:39.837Z,10.22
2023-02-18T14:04:39.854Z,10.24
2023-02-18T14:05:39.827Z,10.24
2023-02-18T14:06:39.809Z,10.24
2023-02-18T14:07:39.803Z,10.25
2023-02-18T14:08:39.775Z,10.26
2023-02-18T14:09:39.775Z,10.26
2023-02-18T14:10:39.781Z,10.28
2023-02-18T14:11:39.746Z,10.28
2023-02-18T14:12:39.727Z,10.30
2023-02-18T14:13:39.715Z,10.32
2023-02-18T14:14:39.696Z,10.34
2023-02-18T14:15:39.714Z,10.36
2023-02-18T14:16:39.679Z,10.39
2023-02-18T14:17:39.672Z,10.42
2023-02-18T14:18:39.646Z,10.43
2023-02-18T14:19:39.643Z,10.44
2023-02-18T14:20:39.644Z,10.43
2023-02-18T14:21:39.606Z,10.44
2023-02-18T14:22:39.603Z,10.47
2023-02-18T14:23:39.580Z,10.53
2023-02-18T14:24:39.564Z,10.55
2023-02-18T14:25:39.548Z,10.55
2023-02-18T14:26:39.620Z,10.56
2023-02-18T14:27:39.525Z,10.56
2023-02-18T14:28:39.548Z,10.56
2023-02-18T14:29:39.507Z,10.59
2023-02-18T14:30:39.573Z,10.59
2023-02-18T14:31:39.629Z,10.59
2023-02-18T14:32:39.457Z,10.59
2023-02-18T14:33:39.446Z,10.59
2023-02-18T14:34:39.446Z,10.60
2023-02-18T14:35:39.419Z,10.58
2023-02-18T14:36:39.425Z,10.58
2023-02-18T14:37:39.385Z,10.56
2023-02-18T14:38:39.380Z,10.56
2023-02-18T14:39:39.362Z,10.56
2023-02-18T14:40:39.346Z,10.55
2023-02-18T14:41:39.345Z,10.53
2023-02-18T14:42:39.327Z,10.52
2023-02-18T14:43:39.304Z,10.52
2023-02-18T14:44:39.303Z,10.51
2023-02-18T14:45:39.292Z,10.51
2023-02-18T14:46:39.332Z,10.51
2023-02-18T14:47:39.260Z,10.47
2023-02-18T14:48:39.251Z,10.47
2023-02-18T14:49:39.236Z,10.47
2023-02-18T14:50:39.216Z,10.47
2023-02-18T14:51:39.216Z,10.51
2023-02-18T14:52:39.205Z,10.52
2023-02-18T14:53:39.178Z,10.55
2023-02-18T14:54:39.168Z,10.55
2023-02-18T14:55:39.165Z,10.53
2023-02-18T14:56:39.160Z,10.56
2023-02-18T14:57:39.133Z,10.58
2023-02-18T14:58:39.130Z,10.59
2023-02-18T14:59:39.097Z,10.59
2023-02-18T15:00:39.089Z,10.62
2023-02-18T15:01:39.130Z,10.63
2023-02-18T15:02:39.061Z,10.66
2023-02-18T15:03:39.047Z,10.70
2023-02-18T15:04:39.037Z,10.70
2023-02-18T15:05:39.027Z,10.71
2023-02-18T15:06:39.037Z,10.74
2023-02-18T15:07:38.999Z,10.74
2023-02-18T15:08:39.015Z,10.76
2023-02-18T15:09:38.995Z,10.77
2023-02-18T15:10:38.957Z,10.76
2023-02-18T15:11:38.959Z,10.76
2023-02-18T15:12:38.936Z,10.73
2023-02-18T15:13:38.945Z,10.73
2023-02-18T15:14:38.908Z,10.74
2023-02-18T15:15:38.895Z,10.76
2023-02-18T15:16:38.899Z,10.76
2023-02-18T15:17:38.866Z,10.76
2023-02-18T15:18:38.859Z,10.76
2023-02-18T15:19:38.843Z,10.73
2023-02-18T15:20:38.832Z,10.73
2023-02-18T15:21:38.823Z,10.71
2023-02-18T15:22:38.803Z,10.74
2023-02-18T15:23:38.781Z,10.73
2023-02-18T15:24:38.775Z,10.74
2023-02-18T15:25:38.751Z,10.76
2023-02-18T15:26:38.763Z,10.76
2023-02-18T15:27:38.729Z,10.76
2023-02-18T15:28:38.720Z,10.74
2023-02-18T15:29:38.706Z,10.73
2023-02-18T15:30:38.744Z,10.74
2023-02-18T15:31:38.798Z,10.74
2023-02-18T15:32:38.677Z,10.74
2023-02-18T15:33:38.649Z,10.77
2023-02-18T15:34:38.658Z,10.77
2023-02-18T15:35:38.618Z,10.78
2023-02-18T15:36:38.617Z,10.78
2023-02-18T15:37:38.615Z,10.78
2023-02-18T15:38:38.586Z,10.78
2023-02-18T15:39:38.616Z,10.78
2023-02-18T15:40:38.558Z,10.78
2023-02-18T15:41:38.546Z,10.78
2023-02-18T15:42:38.544Z,10.78
2023-02-18T15:43:38.516Z,10.78
2023-02-18T15:44:38.508Z,10.78
2023-02-18T15:45:38.484Z,10.80
2023-02-18T15:46:38.494Z,10.78
2023-02-18T15:47:38.476Z,10.77
2023-02-18T15:48:38.453Z,10.77
2023-02-18T15:49:38.438Z,10.76
2023-02-18T15:50:38.515Z,10.74
2023-02-18T15:51:38.408Z,10.71
2023-02-18T15:52:38.412Z,10.71
2023-02-18T15:53:38.396Z,10.71
2023-02-18T15:54:38.374Z,10.68
2023-02-18T15:55:38.499Z,10.68
2023-02-18T15:56:38.357Z,10.66
2023-02-18T15:57:38.337Z,10.63
2023-02-18T15:58:38.316Z,10.63
2023-02-18T15:59:38.304Z,10.62
2023-02-18T16:00:38.326Z,10.63
2023-02-18T16:01:38.286Z,10.60
2023-02-18T16:02:38.275Z,10.60
2023-02-18T16:03:38.244Z,10.60
2023-02-18T16:04:38.235Z,10.60
2023-02-18T16:05:38.227Z,10.59
2023-02-18T16:06:38.224Z,10.58
2023-02-18T16:07:38.210Z,10.59
2023-02-18T16:08:38.184Z,10.58
2023-02-18T16:09:38.169Z,10.58
2023-02-18T16:10:38.165Z,10.58
2023-02-18T16:11:38.144Z,10.58
2023-02-18T16:12:38.144Z,10.59
2023-02-18T16:13:38.124Z,10.58
2023-02-18T16:14:38.105Z,10.58
2023-02-18T16:15:38.093Z,10.58
2023-02-18T16:16:38.105Z,10.55
2023-02-18T16:17:38.073Z,10.58
2023-02-18T16:18:38.054Z,10.58
2023-02-18T16:19:38.033Z,10.56
2023-02-18T16:20:38.031Z,10.58
2023-02-18T16:21:38.037Z,10.58
2023-02-18T16:22:38.012Z,10.58
2023-02-18T16:23:37.986Z,10.59
2023-02-18T16:24:37.973Z,10.60
2023-02-18T16:25:37.952Z,10.59
2023-02-18T16:26:37.952Z,10.59
2023-02-18T16:27:37.941Z,10.59
2023-02-18T16:28:37.912Z,10.59
2023-02-18T16:29:37.917Z,10.58
2023-02-18T16:30:37.914Z,10.56
2023-02-18T16:31:37.969Z,10.55
2023-02-18T16:32:37.882Z,10.56
2023-02-18T16:33:37.853Z,10.56
2023-02-18T16:34:37.846Z,10.55
2023-02-18T16:35:49.174Z,10.58
2023-02-18T16:36:38.833Z,10.58
2023-02-18T16:37:37.802Z,10.56
2023-02-18T16:38:37.787Z,10.55
2023-02-18T16:39:37.762Z,10.53
2023-02-18T16:40:37.760Z,10.56
2023-02-18T16:41:37.741Z,10.56
2023-02-18T16:42:37.754Z,10.60
2023-02-18T16:43:37.712Z,10.62
2023-02-18T16:44:37.708Z,10.62
2023-02-18T16:45:37.765Z,10.62
2023-02-18T16:46:37.694Z,10.63
2023-02-18T16:47:37.661Z,10.65
2023-02-18T16:48:37.677Z,10.65
2023-02-18T16:49:37.631Z,10.65
2023-02-18T16:50:37.628Z,10.63
2023-02-18T16:51:37.609Z,10.63
2023-02-18T16:52:37.607Z,10.65
2023-02-18T16:53:37.592Z,10.63
2023-02-18T16:54:37.583Z,10.62
2023-02-18T16:55:37.558Z,10.60
2023-02-18T16:56:37.560Z,10.59
2023-02-18T16:57:37.534Z,10.59
2023-02-18T16:58:37.531Z,10.60
2023-02-18T16:59:37.518Z,10.63
2023-02-18T17:00:37.592Z,10.60
2023-02-18T17:01:37.487Z,10.60
2023-02-18T17:02:37.467Z,10.58
2023-02-18T17:03:37.468Z,10.59
2023-02-18T17:04:37.439Z,10.59
2023-02-18T17:05:37.429Z,10.62
2023-02-18T17:06:37.420Z,10.62
2023-02-18T17:07:37.399Z,10.62
2023-02-18T17:08:37.400Z,10.60
2023-02-18T17:09:37.380Z,10.60
2023-02-18T17:10:37.358Z,10.60
2023-02-18T17:11:37.348Z,10.60
2023-02-18T17:12:37.330Z,10.60
2023-02-18T17:13:37.332Z,10.60
2023-02-18T17:14:37.308Z,10.60
2023-02-18T17:15:37.298Z,10.62
2023-02-18T17:16:37.297Z,10.60
2023-02-18T17:17:44.331Z,10.59
2023-02-18T17:18:37.250Z,10.60
2023-02-18T17:19:37.241Z,10.59
2023-02-18T17:20:37.244Z,10.60
2023-02-18T17:21:37.233Z,10.63
2023-02-18T17:22:37.194Z,10.63
2023-02-18T17:23:37.203Z,10.63
2023-02-18T17:24:37.175Z,10.66
2023-02-18T17:25:37.163Z,10.66
2023-02-18T17:26:37.138Z,10.63
2023-02-18T17:27:37.131Z,10.63
2023-02-18T17:28:37.129Z,10.62
2023-02-18T17:29:37.108Z,10.60
2023-02-18T17:30:37.094Z,10.59
2023-02-18T17:31:37.179Z,10.56
2023-02-18T17:32:37.060Z,10.56
2023-02-18T17:33:37.090Z,10.53
2023-02-18T17:34:37.039Z,10.51
2023-02-18T17:35:37.042Z,10.47
2023-02-18T17:36:37.002Z,10.47
2023-02-18T17:37:36.991Z,10.46
2023-02-18T17:38:36.980Z,10.43
2023-02-18T17:39:36.960Z,10.43
2023-02-18T17:40:36.952Z,10.42
2023-02-18T17:41:36.930Z,10.42
2023-02-18T17:42:36.925Z,10.40
2023-02-18T17:43:36.920Z,10.37
2023-02-18T17:44:36.896Z,10.34
2023-02-18T17:45:36.913Z,10.32
2023-02-18T17:46:36.869Z,10.30
2023-02-18T17:47:36.852Z,10.30
2023-02-18T17:48:36.876Z,10.30
2023-02-18T17:49:36.841Z,10.32
2023-02-18T17:50:36.818Z,10.33
2023-02-18T17:51:36.833Z,10.33
2023-02-18T17:52:36.793Z,10.33
2023-02-18T17:53:36.788Z,10.33
2023-02-18T17:54:36.770Z,10.33
2023-02-18T17:55:36.758Z,10.34
2023-02-18T17:56:36.740Z,10.34
2023-02-18T17:57:36.721Z,10.34
2023-02-18T17:58:36.716Z,10.34
2023-02-18T17:59:36.707Z,10.34
2023-02-18T18:00:36.679Z,10.33
2023-02-18T18:01:36.778Z,10.33
2023-02-18T18:02:36.656Z,10.33
2023-02-18T18:03:36.643Z,10.33
2023-02-18T18:04:36.675Z,10.33
2023-02-18T18:05:36.615Z,10.32
2023-02-18T18:06:36.595Z,10.36
2023-02-18T18:07:36.606Z,10.36
2023-02-18T18:08:36.584Z,10.39
2023-02-18T18:09:36.575Z,10.40
2023-02-18T18:10:36.559Z,10.40
2023-02-18T18:11:36.544Z,10.40
2023-02-18T18:12:36.524Z,10.43
2023-02-18T18:13:36.512Z,10.43
2023-02-18T18:14:36.505Z,10.44
2023-02-18T18:15:36.493Z,10.44